sensor_id;sensor_type;location;lat;lon;timestamp;P1;durP1;ratioP1;P2;durP2;ratioP2
80281;SDS011;69586;51.890;-8.458;2024-02-21T12:57:27;3.88;;;1.65;;
80281;SDS011;69586;51.890;-8.458;2024-02-21T12:59:53;8.80;;;2.00;;
80281;SDS011;69586;51.890;-8.458;2024-02-21T13:02:18;6.82;;;1.60;;
80281;SDS011;69586;51.890;-8.458;2024-02-21T13:04:45;4.68;;;1.77;;
80281;SDS011;69586;51.890;-8.458;2024-02-21T13:07:11;1.83;;;1.38;;
80281;SDS011;69586;51.890;-8.458;2024-02-21T13:09:37;2.75;;;1.50;;
80281;SDS011;69586;51.890;-8.458;2024-02-21T13:12:02;3.70;;;1.45;;
80281;SDS011;69586;51.890;-8.458;2024-02-21T13:14:28;6.53;;;1.90;;
80281;SDS011;69586;51.890;-8.458;2024-02-21T13:16:55;6.78;;;1.63;;
80281;SDS011;69586;51.890;-8.458;2024-02-21T13:19:21;4.13;;;1.80;;
80281;SDS011;69586;51.890;-8.458;2024-02-21T13:21:47;1.50;;;1.33;;
80281;SDS011;69586;51.890;-8.458;2024-02-21T13:24:12;4.90;;;1.98;;
80281;SDS011;69586;51.890;-8.458;2024-02-21T13:26:38;3.08;;;1.50;;
80281;SDS011;69586;51.890;-8.458;2024-02-21T13:29:04;3.13;;;1.67;;
80281;SDS011;69586;51.890;-8.458;2024-02-21T13:31:30;2.83;;;1.65;;
80281;SDS011;69586;51.890;-8.458;2024-02-21T13:33:55;3.03;;;1.90;;
80281;SDS011;69586;51.890;-8.458;2024-02-21T13:36:21;6.85;;;1.80;;
80281;SDS011;69586;51.890;-8.458;2024-02-21T13:38:47;3.60;;;1.77;;
80281;SDS011;69586;51.890;-8.458;2024-02-21T13:41:13;4.65;;;1.60;;
80281;SDS011;69586;51.890;-8.458;2024-02-21T13:43:38;4.20;;;1.70;;
80281;SDS011;69586;51.890;-8.458;2024-02-21T13:46:04;4.07;;;1.50;;
80281;SDS011;69586;51.890;-8.458;2024-02-21T13:48:34;5.43;;;2.00;;
80281;SDS011;69586;51.890;-8.458;2024-02-21T13:51:00;5.30;;;1.75;;
80281;SDS011;69586;51.890;-8.458;2024-02-21T13:53:27;3.80;;;1.70;;
80281;SDS011;69586;51.890;-8.458;2024-02-21T13:55:53;3.72;;;1.80;;
80281;SDS011;69586;51.890;-8.458;2024-02-21T13:58:19;5.28;;;1.90;;
80281;SDS011;69586;51.890;-8.458;2024-02-21T14:00:46;5.22;;;1.65;;
80281;SDS011;69586;51.890;-8.458;2024-02-21T14:03:11;6.90;;;1.90;;
80281;SDS011;69586;51.890;-8.458;2024-02-21T14:05:37;6.07;;;1.73;;
80281;SDS011;69586;51.890;-8.458;2024-02-21T14:08:05;9.82;;;1.85;;
80281;SDS011;69586;51.890;-8.458;2024-02-21T14:10:31;4.82;;;1.80;;
80281;SDS011;69586;51.890;-8.458;2024-02-21T14:12:58;7.28;;;1.95;;
80281;SDS011;69586;51.890;-8.458;2024-02-21T14:15:25;5.82;;;1.65;;
80281;SDS011;69586;51.890;-8.458;2024-02-21T14:17:51;5.20;;;1.48;;
80281;SDS011;69586;51.890;-8.458;2024-02-21T14:20:17;7.75;;;1.85;;
80281;SDS011;69586;51.890;-8.458;2024-02-21T14:22:42;6.15;;;1.80;;
80281;SDS011;69586;51.890;-8.458;2024-02-21T14:25:08;3.97;;;2.15;;
80281;SDS011;69586;51.890;-8.458;2024-02-21T14:27:34;7.35;;;2.10;;
80281;SDS011;69586;51.890;-8.458;2024-02-21T14:30:02;10.38;;;2.85;;
80281;SDS011;69586;51.890;-8.458;2024-02-21T14:32:28;6.68;;;2.60;;
80281;SDS011;69586;51.890;-8.458;2024-02-21T14:34:54;8.27;;;2.58;;
80281;SDS011;69586;51.890;-8.458;2024-02-21T14:37:19;4.90;;;2.20;;
80281;SDS011;69586;51.890;-8.458;2024-02-21T14:39:46;5.70;;;1.95;;
80281;SDS011;69586;51.890;-8.458;2024-02-21T14:42:12;5.15;;;2.10;;
80281;SDS011;69586;51.890;-8.458;2024-02-21T14:44:38;4.18;;;2.55;;
80281;SDS011;69586;51.890;-8.458;2024-02-21T14:47:04;4.45;;;2.10;;
80281;SDS011;69586;51.890;-8.458;2024-02-21T14:49:30;6.35;;;2.55;;
80281;SDS011;69586;51.890;-8.458;2024-02-21T14:51:56;4.55;;;1.98;;
80281;SDS011;69586;51.890;-8.458;2024-02-21T14:54:22;8.00;;;2.10;;
80281;SDS011;69586;51.890;-8.458;2024-02-21T14:56:48;7.03;;;2.30;;
80281;SDS011;69586;51.890;-8.458;2024-02-21T14:59:15;6.65;;;2.28;;
80281;SDS011;69586;51.890;-8.458;2024-02-21T15:01:41;5.82;;;2.42;;
80281;SDS011;69586;51.890;-8.458;2024-02-21T15:04:07;7.65;;;1.95;;
80281;SDS011;69586;51.890;-8.458;2024-02-21T15:06:33;6.35;;;2.38;;
80281;SDS011;69586;51.890;-8.458;2024-02-21T15:09:02;5.30;;;1.85;;
80281;SDS011;69586;51.890;-8.458;2024-02-21T15:11:28;5.45;;;2.17;;
80281;SDS011;69586;51.890;-8.458;2024-02-21T15:13:54;2.97;;;1.73;;
80281;SDS011;69586;51.890;-8.458;2024-02-21T15:16:20;5.00;;;2.17;;
80281;SDS011;69586;51.890;-8.458;2024-02-21T15:18:46;4.88;;;1.70;;
80281;SDS011;69586;51.890;-8.458;2024-02-21T15:21:12;2.70;;;1.60;;
80281;SDS011;69586;51.890;-8.458;2024-02-21T15:23:40;2.83;;;1.60;;
80281;SDS011;69586;51.890;-8.458;2024-02-21T15:26:06;4.40;;;1.63;;
80281;SDS011;69586;51.890;-8.458;2024-02-21T15:28:32;3.47;;;1.80;;
80281;SDS011;69586;51.890;-8.458;2024-02-21T15:30:58;9.07;;;2.00;;
80281;SDS011;69586;51.890;-8.458;2024-02-21T15:33:23;62.15;;;13.02;;
80281;SDS011;69586;51.890;-8.458;2024-02-21T15:35:51;43.58;;;9.43;;
80281;SDS011;69586;51.890;-8.458;2024-02-21T15:38:16;31.08;;;7.05;;
80281;SDS011;69586;51.890;-8.458;2024-02-21T15:40:42;24.92;;;5.90;;
80281;SDS011;69586;51.890;-8.458;2024-02-21T15:43:08;36.28;;;7.95;;
80281;SDS011;69586;51.890;-8.458;2024-02-21T15:45:34;22.80;;;5.35;;
80281;SDS011;69586;51.890;-8.458;2024-02-21T15:47:59;14.40;;;4.90;;
80281;SDS011;69586;51.890;-8.458;2024-02-21T15:50:25;11.07;;;3.97;;
80281;SDS011;69586;51.890;-8.458;2024-02-21T15:52:54;16.75;;;4.78;;
80281;SDS011;69586;51.890;-8.458;2024-02-21T15:55:20;19.05;;;4.80;;
80281;SDS011;69586;51.890;-8.458;2024-02-21T17:29:53;16.95;;;4.70;;
80281;SDS011;69586;51.890;-8.458;2024-02-21T17:32:19;17.60;;;4.63;;
80281;SDS011;69586;51.890;-8.458;2024-02-21T17:34:45;18.48;;;4.60;;
80281;SDS011;69586;51.890;-8.458;2024-02-21T17:37:12;17.35;;;4.45;;
80281;SDS011;69586;51.890;-8.458;2024-02-21T17:39:37;16.95;;;4.70;;
80281;SDS011;69586;51.890;-8.458;2024-02-21T17:42:03;20.50;;;4.50;;
80281;SDS011;69586;51.890;-8.458;2024-02-21T17:44:29;24.02;;;4.78;;
80281;SDS011;69586;51.890;-8.458;2024-02-21T17:46:55;16.60;;;4.57;;
80281;SDS011;69586;51.890;-8.458;2024-02-21T17:49:21;24.98;;;5.05;;
80281;SDS011;69586;51.890;-8.458;2024-02-21T17:51:47;18.33;;;5.10;;
80281;SDS011;69586;51.890;-8.458;2024-02-21T17:54:13;16.40;;;4.18;;
80281;SDS011;69586;51.890;-8.458;2024-02-21T17:56:41;19.48;;;4.85;;
80281;SDS011;69586;51.890;-8.458;2024-02-21T17:59:07;21.35;;;4.72;;
80281;SDS011;69586;51.890;-8.458;2024-02-21T18:01:33;19.95;;;4.45;;
80281;SDS011;69586;51.890;-8.458;2024-02-21T18:03:59;15.30;;;3.67;;
80281;SDS011;69586;51.890;-8.458;2024-02-21T18:06:24;13.63;;;3.72;;
80281;SDS011;69586;51.890;-8.458;2024-02-21T18:08:50;24.90;;;4.28;;
80281;SDS011;69586;51.890;-8.458;2024-02-21T18:11:17;20.83;;;4.40;;
80281;SDS011;69586;51.890;-8.458;2024-02-21T18:13:43;21.95;;;4.38;;
80281;SDS011;69586;51.890;-8.458;2024-02-21T18:16:08;18.83;;;3.95;;
80281;SDS011;69586;51.890;-8.458;2024-02-21T18:18:34;18.85;;;4.35;;
80281;SDS011;69586;51.890;-8.458;2024-02-21T18:21:00;17.35;;;4.18;;
80281;SDS011;69586;51.890;-8.458;2024-02-21T18:23:26;19.70;;;4.60;;
80281;SDS011;69586;51.890;-8.458;2024-02-21T18:25:54;18.92;;;4.43;;
80281;SDS011;69586;51.890;-8.458;2024-02-21T18:28:20;24.45;;;4.70;;
80281;SDS011;69586;51.890;-8.458;2024-02-21T18:30:46;25.90;;;4.80;;
80281;SDS011;69586;51.890;-8.458;2024-02-21T18:33:11;22.27;;;4.78;;
80281;SDS011;69586;51.890;-8.458;2024-02-21T18:35:37;30.48;;;5.40;;
80281;SDS011;69586;51.890;-8.458;2024-02-21T18:38:04;15.43;;;4.18;;
80281;SDS011;69586;51.890;-8.458;2024-02-21T18:40:29;22.27;;;4.20;;
80281;SDS011;69586;51.890;-8.458;2024-02-21T18:42:55;25.88;;;5.28;;
80281;SDS011;69586;51.890;-8.458;2024-02-21T18:45:24;24.65;;;4.65;;
80281;SDS011;69586;51.890;-8.458;2024-02-21T18:47:50;23.80;;;5.25;;
80281;SDS011;69586;51.890;-8.458;2024-02-21T18:50:19;26.02;;;4.65;;
80281;SDS011;69586;51.890;-8.458;2024-02-21T18:52:44;28.33;;;5.72;;
80281;SDS011;69586;51.890;-8.458;2024-02-21T18:55:16;19.58;;;4.43;;
80281;SDS011;69586;51.890;-8.458;2024-02-21T18:57:42;17.92;;;5.15;;
80281;SDS011;69586;51.890;-8.458;2024-02-21T19:00:08;24.27;;;5.28;;
80281;SDS011;69586;51.890;-8.458;2024-02-21T19:02:35;27.33;;;5.70;;
80281;SDS011;69586;51.890;-8.458;2024-02-21T19:05:01;18.40;;;4.28;;
80281;SDS011;69586;51.890;-8.458;2024-02-21T19:07:27;25.70;;;5.10;;
80281;SDS011;69586;51.890;-8.458;2024-02-21T19:09:54;17.58;;;4.60;;
80281;SDS011;69586;51.890;-8.458;2024-02-21T19:12:20;16.77;;;4.38;;
80281;SDS011;69586;51.890;-8.458;2024-02-21T19:14:46;18.25;;;4.50;;
80281;SDS011;69586;51.890;-8.458;2024-02-21T19:17:11;22.60;;;4.97;;
80281;SDS011;69586;51.890;-8.458;2024-02-21T19:19:37;23.98;;;4.95;;
80281;SDS011;69586;51.890;-8.458;2024-02-21T19:22:03;18.33;;;4.28;;
80281;SDS011;69586;51.890;-8.458;2024-02-21T19:24:30;22.05;;;5.20;;
80281;SDS011;69586;51.890;-8.458;2024-02-21T19:26:56;16.20;;;4.18;;
